createdAt,value
2022-09-01T00:01:44.478Z,5.05
2022-09-01T00:03:49.670Z,5.90
2022-09-01T00:05:51.867Z,7.80
2022-09-01T00:07:53.890Z,8.13
2022-09-01T00:09:55.719Z,8.90
2022-09-01T00:11:57.736Z,8.00
2022-09-01T00:14:01.578Z,6.03
2022-09-01T00:16:03.717Z,6.93
2022-09-01T00:18:05.898Z,6.20
2022-09-01T00:20:08.403Z,9.13
2022-09-01T00:22:10.313Z,5.82
2022-09-01T00:24:14.480Z,8.20
2022-09-01T00:26:16.652Z,6.63
2022-09-01T00:28:18.524Z,4.18
2022-09-01T00:30:21.488Z,5.43
2022-09-01T00:32:23.416Z,4.40
2022-09-01T00:34:25.332Z,6.03
2022-09-01T00:36:27.362Z,7.68
2022-09-01T00:38:29.561Z,6.28
2022-09-01T00:40:31.433Z,5.57
2022-09-01T00:42:33.291Z,4.38
2022-09-01T00:44:35.351Z,6.57
2022-09-01T00:46:50.446Z,5.32
2022-09-01T00:49:02.162Z,5.03
2022-09-01T00:51:05.234Z,4.70
2022-09-01T00:53:08.498Z,3.80
2022-09-01T00:55:15.144Z,6.28
2022-09-01T00:57:17.019Z,4.45
2022-09-01T00:59:22.551Z,4.65
2022-09-01T01:01:24.379Z,5.43
2022-09-01T01:03:26.488Z,4.38
2022-09-01T01:05:39.433Z,3.95
2022-09-01T01:07:43.171Z,4.53
2022-09-01T01:09:50.540Z,7.22
2022-09-01T01:11:52.823Z,5.10
2022-09-01T01:13:55.000Z,3.17
2022-09-01T01:15:57.051Z,4.07
2022-09-01T01:17:59.513Z,7.35
2022-09-01T01:20:02.137Z,5.03
2022-09-01T01:22:08.172Z,6.72
2022-09-01T01:24:23.684Z,4.32
2022-09-01T01:26:25.552Z,5.38
2022-09-01T01:28:40.353Z,4.03
2022-09-01T01:30:51.470Z,5.57
2022-09-01T01:32:53.286Z,4.55
2022-09-01T01:34:56.114Z,4.28
2022-09-01T01:36:57.894Z,3.40
2022-09-01T01:39:03.052Z,5.65
2022-09-01T01:41:05.201Z,3.75
2022-09-01T01:43:08.482Z,4.20
2022-09-01T01:45:10.784Z,4.32
2022-09-01T01:47:13.715Z,6.82
2022-09-01T01:49:16.658Z,4.03
2022-09-01T01:51:20.327Z,3.97
2022-09-01T01:55:25.433Z,5.72
2022-09-01T01:57:27.322Z,5.72
2022-09-01T01:59:29.178Z,5.78
2022-09-01T02:01:31.140Z,3.78
2022-09-01T02:03:34.814Z,4.82
2022-09-01T02:07:38.486Z,5.43
2022-09-01T02:09:41.516Z,4.63
2022-09-01T02:11:43.796Z,6.80
2022-09-01T02:13:45.640Z,4.25
2022-09-01T02:15:51.499Z,5.57
2022-09-01T02:17:53.346Z,6.68
2022-09-01T02:19:55.146Z,3.72
2022-09-01T02:21:57.098Z,6.55
2022-09-01T02:24:01.867Z,4.07
2022-09-01T02:26:19.473Z,4.95
2022-09-01T02:28:23.496Z,4.15
2022-09-01T02:30:25.773Z,3.83
2022-09-01T02:32:27.730Z,4.25
2022-09-01T02:34:29.617Z,4.10
2022-09-01T02:36:32.032Z,3.33
2022-09-01T02:38:34.112Z,4.72
2022-09-01T02:40:36.015Z,3.90
2022-09-01T02:42:39.516Z,4.50
2022-09-01T02:44:41.541Z,3.70
2022-09-01T02:46:45.238Z,9.40
2022-09-01T02:50:48.796Z,5.65
2022-09-01T02:52:51.336Z,7.03
2022-09-01T02:54:53.298Z,4.72
2022-09-01T02:56:55.138Z,4.05
2022-09-01T02:58:57.043Z,7.05
2022-09-01T03:00:59.642Z,3.83
2022-09-01T03:03:02.275Z,4.82
2022-09-01T03:05:04.377Z,3.47
2022-09-01T03:07:07.340Z,5.35
2022-09-01T03:09:13.421Z,3.50
2022-09-01T03:11:15.206Z,3.40
2022-09-01T03:13:19.701Z,4.15
2022-09-01T03:15:21.966Z,4.88
2022-09-01T03:17:23.745Z,5.50
2022-09-01T03:19:25.735Z,3.78
2022-09-01T03:21:27.557Z,6.35
2022-09-01T03:23:31.094Z,5.32
2022-09-01T03:25:33.138Z,5.75
2022-09-01T03:27:34.916Z,4.80
2022-09-01T03:29:37.030Z,3.47
2022-09-01T03:31:39.037Z,6.18
2022-09-01T03:33:41.165Z,5.43
2022-09-01T03:35:44.091Z,5.80
2022-09-01T03:37:46.358Z,3.80
2022-09-01T03:39:48.130Z,4.22
2022-09-01T03:41:52.269Z,3.40
2022-09-01T03:43:54.739Z,9.35
2022-09-01T03:45:58.105Z,3.22
2022-09-01T03:48:00.076Z,5.18
2022-09-01T03:50:02.018Z,8.02
2022-09-01T03:52:04.117Z,3.70
2022-09-01T03:54:06.275Z,5.45
2022-09-01T03:56:08.498Z,8.77
2022-09-01T03:58:10.708Z,19.55
2022-09-01T04:00:13.292Z,6.07
2022-09-01T04:02:15.207Z,8.77
2022-09-01T04:04:17.126Z,8.68
2022-09-01T04:06:19.412Z,8.88
2022-09-01T04:08:23.280Z,8.98
2022-09-01T04:10:25.343Z,14.82
2022-09-01T04:12:27.171Z,13.35
2022-09-01T04:14:29.220Z,6.35
2022-09-01T04:16:35.019Z,6.38
2022-09-01T04:18:39.640Z,5.82
2022-09-01T04:20:42.528Z,5.82
2022-09-01T04:22:44.321Z,6.75
2022-09-01T04:24:46.707Z,5.43
2022-09-01T04:26:48.742Z,4.90
2022-09-01T04:28:50.596Z,7.78
2022-09-01T04:30:55.295Z,4.82
2022-09-01T04:32:57.163Z,4.22
2022-09-01T04:34:59.063Z,5.30
2022-09-01T04:37:00.867Z,9.27
2022-09-01T04:39:04.502Z,5.47
2022-09-01T04:41:07.380Z,6.75
2022-09-01T04:43:09.795Z,8.95
2022-09-01T04:45:12.286Z,7.60
2022-09-01T04:47:14.052Z,5.53
2022-09-01T04:49:18.123Z,4.05
2022-09-01T04:51:20.313Z,7.57
2022-09-01T04:53:22.149Z,6.43
2022-09-01T04:55:30.955Z,5.15
2022-09-01T04:57:32.993Z,5.13
2022-09-01T04:59:35.122Z,4.55
2022-09-01T05:01:37.874Z,5.65
2022-09-01T05:03:40.120Z,4.18
2022-09-01T05:05:44.943Z,5.43
2022-09-01T05:07:46.714Z,3.33
2022-09-01T05:09:48.590Z,9.52
2022-09-01T05:11:50.358Z,3.78
2022-09-01T05:13:52.209Z,6.10
2022-09-01T05:16:07.146Z,7.75
2022-09-01T05:18:08.955Z,4.20
2022-09-01T05:20:11.934Z,7.22
2022-09-01T05:22:14.214Z,3.95
2022-09-01T05:24:18.761Z,4.65
2022-09-01T05:26:30.574Z,5.90
2022-09-01T05:28:32.487Z,5.80
2022-09-01T05:30:34.487Z,7.35
2022-09-01T05:32:37.599Z,4.78
2022-09-01T05:34:41.142Z,6.05
2022-09-01T05:36:44.949Z,4.68
2022-09-01T05:38:48.049Z,3.17
2022-09-01T05:40:58.676Z,4.20
2022-09-01T05:43:00.447Z,6.43
2022-09-01T05:45:02.201Z,6.05
2022-09-01T05:47:04.377Z,5.43
2022-09-01T05:49:07.616Z,4.55
2022-09-01T05:51:27.562Z,4.95
2022-09-01T05:53:33.795Z,3.47
2022-09-01T05:55:37.800Z,4.50
2022-09-01T05:57:39.623Z,5.55
2022-09-01T05:59:41.458Z,3.75
2022-09-01T06:01:48.144Z,5.95
2022-09-01T06:03:53.415Z,4.57
2022-09-01T06:05:56.126Z,4.43
2022-09-01T06:07:58.547Z,4.70
2022-09-01T06:10:00.741Z,5.72
2022-09-01T06:12:02.726Z,5.93
2022-09-01T06:14:04.962Z,5.82
2022-09-01T06:16:07.043Z,4.15
2022-09-01T06:18:12.081Z,2.97
2022-09-01T06:20:14.011Z,4.88
2022-09-01T06:22:15.799Z,4.15
2022-09-01T06:24:17.989Z,4.13
2022-09-01T06:26:20.896Z,3.90
2022-09-01T06:28:22.686Z,4.38
2022-09-01T06:30:24.952Z,8.07
2022-09-01T06:32:26.787Z,4.20
2022-09-01T06:34:28.667Z,6.43
2022-09-01T06:36:34.957Z,3.55
2022-09-01T06:38:36.936Z,4.15
2022-09-01T06:40:39.942Z,3.08
2022-09-01T06:42:42.063Z,3.65
2022-09-01T06:44:43.904Z,3.13
2022-09-01T06:46:45.795Z,2.65
2022-09-01T06:48:48.381Z,4.97
2022-09-01T06:55:35.839Z,3.15
2022-09-01T07:00:00.973Z,3.05
2022-09-01T07:02:05.697Z,1.55
2022-09-01T07:04:12.821Z,2.75
2022-09-01T07:09:19.861Z,2.75
2022-09-01T07:13:22.751Z,2.67
2022-09-01T07:17:49.632Z,6.65
2022-09-01T07:19:54.681Z,2.83
2022-09-01T07:24:19.728Z,3.95
2022-09-01T07:26:26.579Z,5.28
2022-09-01T07:30:52.603Z,4.30
2022-09-01T07:32:54.655Z,2.58
2022-09-01T07:34:56.969Z,3.30
2022-09-01T07:42:30.581Z,3.35
2022-09-01T07:44:04.730Z,4.22
2022-09-01T07:49:01.257Z,6.20
2022-09-01T07:53:20.790Z,4.07
2022-09-01T07:55:22.735Z,3.00
2022-09-01T07:57:24.537Z,5.93
2022-09-01T07:59:26.401Z,6.50
2022-09-01T08:01:28.957Z,3.20
2022-09-01T08:03:30.786Z,3.15
2022-09-01T08:05:33.486Z,3.15
2022-09-01T08:07:51.746Z,6.77
2022-09-01T08:09:55.938Z,6.10
2022-09-01T08:12:03.555Z,3.90
2022-09-01T08:14:05.396Z,5.55
2022-09-01T08:16:07.860Z,2.40
2022-09-01T08:18:11.143Z,3.58
2022-09-01T08:20:18.966Z,4.15
2022-09-01T08:22:20.804Z,3.55
2022-09-01T08:24:22.627Z,4.38
2022-09-01T08:26:26.771Z,3.95
2022-09-01T08:28:28.727Z,5.30
2022-09-01T08:30:32.565Z,4.78
2022-09-01T08:34:36.604Z,2.95
2022-09-01T08:36:38.829Z,2.58
2022-09-01T08:38:41.840Z,4.28
2022-09-01T08:40:54.775Z,1.85
2022-09-01T08:43:34.999Z,2.53
2022-09-01T08:45:58.952Z,1.88
2022-09-01T08:48:37.135Z,4.45
2022-09-01T08:50:29.338Z,3.22
2022-09-01T08:52:35.262Z,4.47
2022-09-01T08:55:00.678Z,4.82
2022-09-01T08:57:08.869Z,4.15
2022-09-01T08:59:11.986Z,4.20
2022-09-01T09:01:46.577Z,4.03
2022-09-01T09:06:17.839Z,5.13
2022-09-01T09:08:39.059Z,6.32
2022-09-01T09:10:59.761Z,2.33
2022-09-01T09:13:46.779Z,5.78
2022-09-01T09:16:09.473Z,3.53
2022-09-01T09:18:40.123Z,5.90
2022-09-01T09:20:45.229Z,2.90
2022-09-01T09:22:49.098Z,4.57
2022-09-01T09:24:52.525Z,4.40
2022-09-01T09:26:57.635Z,3.53
2022-09-01T09:28:59.469Z,4.55
2022-09-01T09:31:36.547Z,5.93
2022-09-01T09:33:51.708Z,3.17
2022-09-01T09:35:54.493Z,3.90
2022-09-01T09:37:56.738Z,3.65
2022-09-01T09:40:12.763Z,1.90
2022-09-01T09:42:15.166Z,3.35
2022-09-01T09:44:17.039Z,2.22
2022-09-01T09:46:33.832Z,3.30
2022-09-01T09:48:35.720Z,3.20
2022-09-01T09:50:40.091Z,2.80
2022-09-01T09:52:43.817Z,4.07
2022-09-01T09:55:02.803Z,4.45
2022-09-01T09:57:10.355Z,2.75
2022-09-01T10:00:00.645Z,2.60
2022-09-01T10:02:33.489Z,2.03
2022-09-01T10:04:38.832Z,4.18
2022-09-01T10:06:43.047Z,3.83
2022-09-01T10:08:45.886Z,4.72
2022-09-01T10:10:57.620Z,2.92
2022-09-01T10:13:01.999Z,4.50
2022-09-01T10:15:12.826Z,4.60
2022-09-01T10:17:21.372Z,5.03
2022-09-01T10:19:26.513Z,6.80
2022-09-01T10:21:31.793Z,5.03
2022-09-01T10:23:36.368Z,6.97
2022-09-01T10:25:40.636Z,4.32
2022-09-01T10:27:48.096Z,2.38
2022-09-01T10:30:12.607Z,1.50
2022-09-01T10:32:37.915Z,5.25
2022-09-01T10:34:48.265Z,2.17
2022-09-01T10:36:55.881Z,6.65
2022-09-01T10:39:04.550Z,3.13
2022-09-01T10:41:08.821Z,3.30
2022-09-01T10:43:27.207Z,1.15
2022-09-01T10:45:38.041Z,4.18
2022-09-01T10:47:40.862Z,1.70
2022-09-01T10:49:46.780Z,4.20
2022-09-01T10:51:56.520Z,1.98
2022-09-01T10:54:02.210Z,1.00
2022-09-01T10:56:28.110Z,1.98
2022-09-01T11:01:48.992Z,2.50
2022-09-01T11:03:56.518Z,1.63
2022-09-01T11:06:12.005Z,1.27
2022-09-01T11:08:50.897Z,1.13
2022-09-01T11:11:05.382Z,3.90
2022-09-01T11:13:20.510Z,3.15
2022-09-01T11:17:39.153Z,3.05
2022-09-01T11:19:47.231Z,2.90
2022-09-01T11:22:05.912Z,2.03
2022-09-01T11:24:57.910Z,1.38
2022-09-01T11:27:02.187Z,6.35
2022-09-01T11:29:04.059Z,5.45
2022-09-01T11:31:09.114Z,2.50
2022-09-01T11:33:17.037Z,3.75
2022-09-01T11:35:26.883Z,2.03
2022-09-01T11:37:28.737Z,2.20
2022-09-01T11:39:42.023Z,2.63
2022-09-01T11:42:02.094Z,2.30
2022-09-01T11:44:15.349Z,1.90
2022-09-01T11:46:25.321Z,2.22
2022-09-01T11:48:27.214Z,1.08
2022-09-01T11:50:32.515Z,3.58
2022-09-01T11:52:39.460Z,1.25
2022-09-01T11:54:43.937Z,3.05
2022-09-01T11:56:45.801Z,3.15
2022-09-01T11:58:47.697Z,3.97
2022-09-01T12:00:49.455Z,12.90
2022-09-01T12:02:52.713Z,5.82
2022-09-01T12:04:56.081Z,3.95
2022-09-01T12:07:11.288Z,1.40
2022-09-01T12:09:13.241Z,5.30
2022-09-01T12:11:28.313Z,1.75
2022-09-01T12:13:30.235Z,2.42
2022-09-01T12:15:32.437Z,2.85
2022-09-01T12:17:35.634Z,1.58
2022-09-01T12:19:37.516Z,2.08
2022-09-01T12:21:44.097Z,2.10
2022-09-01T12:23:45.955Z,2.92
2022-09-01T12:25:47.997Z,5.93
2022-09-01T12:27:50.860Z,1.88
2022-09-01T12:29:52.972Z,1.85
2022-09-01T12:31:55.319Z,1.27
2022-09-01T12:33:57.188Z,8.02
2022-09-01T12:36:30.287Z,3.47
2022-09-01T12:38:32.223Z,2.92
2022-09-01T12:40:35.927Z,1.55
2022-09-01T12:42:38.976Z,1.30
2022-09-01T12:44:45.502Z,1.58
2022-09-01T12:46:47.325Z,1.02
2022-09-01T12:48:49.519Z,4.35
2022-09-01T12:50:53.716Z,1.33
2022-09-01T12:52:58.815Z,1.85
2022-09-01T12:55:03.390Z,2.63
2022-09-01T12:57:06.170Z,2.85
2022-09-01T12:59:36.245Z,1.35
2022-09-01T13:01:41.354Z,2.20
2022-09-01T13:03:43.425Z,1.55
2022-09-01T13:05:47.158Z,3.75
2022-09-01T13:07:49.567Z,3.47
2022-09-01T13:09:51.331Z,0.70
2022-09-01T13:12:08.673Z,1.23
2022-09-01T13:14:10.529Z,1.38
2022-09-01T13:16:12.828Z,0.85
2022-09-01T13:18:16.450Z,4.15
2022-09-01T13:20:19.480Z,1.52
2022-09-01T13:22:23.357Z,2.72
2022-09-01T13:24:29.388Z,2.03
2022-09-01T13:26:33.307Z,4.28
2022-09-01T13:28:37.501Z,1.17
2022-09-01T13:30:45.434Z,1.38
2022-09-01T13:35:12.078Z,3.67
2022-09-01T13:39:15.739Z,6.88
2022-09-01T13:41:18.148Z,4.93
2022-09-01T13:43:22.773Z,6.30
2022-09-01T13:45:25.124Z,9.13
2022-09-01T13:47:29.475Z,5.35
2022-09-01T13:51:54.081Z,5.90
2022-09-01T13:53:55.898Z,3.97
2022-09-01T13:58:04.707Z,10.00
2022-09-01T14:00:10.850Z,14.07
2022-09-01T14:02:12.854Z,4.35
2022-09-01T14:04:14.734Z,10.32
2022-09-01T14:06:16.749Z,4.43
2022-09-01T14:08:22.241Z,9.10
2022-09-01T14:10:25.432Z,7.22
2022-09-01T14:12:27.298Z,12.65
2022-09-01T14:15:10.533Z,10.82
2022-09-01T14:16:50.874Z,3.78
2022-09-01T14:18:52.656Z,6.32
2022-09-01T14:20:54.439Z,3.42
2022-09-01T14:22:56.250Z,8.85
2022-09-01T14:25:00.095Z,2.85
2022-09-01T14:27:02.413Z,4.10
2022-09-01T14:29:04.203Z,1.27
2022-09-01T14:31:10.519Z,4.18
2022-09-01T14:33:12.923Z,3.15
2022-09-01T14:35:16.912Z,2.03
2022-09-01T14:37:18.678Z,3.78
2022-09-01T14:39:20.715Z,1.52
2022-09-01T14:41:25.794Z,3.10
2022-09-01T14:43:29.091Z,2.28
2022-09-01T14:45:31.543Z,2.00
2022-09-01T14:47:33.320Z,1.77
2022-09-01T14:49:35.145Z,3.55
2022-09-01T14:54:00.022Z,9.48
2022-09-01T14:56:02.899Z,1.75
2022-09-01T14:58:05.639Z,3.40
2022-09-01T15:00:09.896Z,3.22
2022-09-01T15:02:11.807Z,2.08
2022-09-01T15:04:13.733Z,4.90
2022-09-01T15:06:17.223Z,5.93
2022-09-01T15:08:19.541Z,1.20
2022-09-01T15:10:25.774Z,2.60
2022-09-01T15:12:27.871Z,2.63
2022-09-01T15:14:29.857Z,4.93
2022-09-01T15:16:32.119Z,4.45
2022-09-01T15:18:33.974Z,5.15
2022-09-01T15:20:40.479Z,7.50
2022-09-01T15:22:42.259Z,4.43
2022-09-01T15:24:44.108Z,6.22
2022-09-01T15:26:46.281Z,4.05
2022-09-01T15:28:49.617Z,3.00
2022-09-01T15:30:54.416Z,1.65
2022-09-01T15:32:56.328Z,1.75
2022-09-01T15:34:58.327Z,2.40
2022-09-01T15:37:00.116Z,1.63
2022-09-01T15:39:02.057Z,2.33
2022-09-01T15:41:04.048Z,4.53
2022-09-01T15:43:06.793Z,2.22
2022-09-01T15:45:17.417Z,3.13
2022-09-01T15:47:25.920Z,3.47
2022-09-01T15:49:28.725Z,2.63
2022-09-01T15:51:43.055Z,2.27
2022-09-01T15:53:44.990Z,3.28
2022-09-01T15:55:54.074Z,6.32
2022-09-01T15:57:58.130Z,3.40
2022-09-01T16:00:03.934Z,5.78
2022-09-01T16:02:07.397Z,2.05
2022-09-01T16:04:17.348Z,3.15
2022-09-01T16:06:26.874Z,3.17
2022-09-01T16:08:29.593Z,2.95
2022-09-01T16:10:35.099Z,5.05
2022-09-01T16:12:47.547Z,5.35
2022-09-01T16:14:49.585Z,3.10
2022-09-01T16:17:03.266Z,4.80
2022-09-01T16:19:46.164Z,2.63
2022-09-01T16:22:21.249Z,4.93
2022-09-01T16:24:23.464Z,2.60
2022-09-01T16:26:26.241Z,2.97
2022-09-01T16:28:39.517Z,3.30
2022-09-01T16:30:47.477Z,2.25
2022-09-01T16:32:52.376Z,2.10
2022-09-01T16:34:57.859Z,4.45
2022-09-01T16:37:06.067Z,2.97
2022-09-01T16:39:31.168Z,5.97
2022-09-01T16:41:53.733Z,4.18
2022-09-01T16:44:18.611Z,6.43
2022-09-01T16:46:36.528Z,9.73
2022-09-01T16:49:03.323Z,5.15
2022-09-01T16:51:22.215Z,6.03
2022-09-01T16:53:48.399Z,4.50
2022-09-01T16:55:59.241Z,6.45
2022-09-01T16:58:21.741Z,5.60
2022-09-01T17:00:30.343Z,7.95
2022-09-01T17:03:17.327Z,5.90
2022-09-01T17:05:27.228Z,8.57
2022-09-01T17:07:40.688Z,9.35
2022-09-01T17:10:08.357Z,5.20
2022-09-01T17:12:21.948Z,6.50
2022-09-01T17:14:53.303Z,7.05
2022-09-01T17:17:06.846Z,3.53
2022-09-01T17:19:18.743Z,4.22
2022-09-01T17:21:39.911Z,6.95
2022-09-01T17:23:53.581Z,5.93
2022-09-01T17:25:59.989Z,4.05
2022-09-01T17:28:04.450Z,2.60
2022-09-01T17:30:07.115Z,5.60
2022-09-01T17:32:33.248Z,4.07
2022-09-01T17:34:50.140Z,4.55
2022-09-01T17:36:54.772Z,5.72
2022-09-01T17:39:06.716Z,7.28
2022-09-01T17:41:23.570Z,6.90
2022-09-01T17:43:54.569Z,26.05
2022-09-01T17:46:28.505Z,20.17
2022-09-01T17:48:54.895Z,14.48
2022-09-01T17:51:08.805Z,12.07
2022-09-01T17:53:46.794Z,11.73
2022-09-01T17:55:56.875Z,16.08
2022-09-01T17:58:04.828Z,21.52
2022-09-01T18:00:21.457Z,23.70
2022-09-01T18:02:55.300Z,27.58
2022-09-01T18:05:14.122Z,10.03
2022-09-01T18:07:48.208Z,7.38
2022-09-01T18:09:54.043Z,4.93
2022-09-01T18:12:13.428Z,6.63
2022-09-01T18:14:20.986Z,4.65
2022-09-01T18:16:31.089Z,7.38
2022-09-01T18:18:39.243Z,5.13
2022-09-01T18:20:44.765Z,10.98
2022-09-01T18:22:55.022Z,6.70
2022-09-01T18:25:03.152Z,9.52
2022-09-01T18:27:05.239Z,12.02
2022-09-01T18:29:07.869Z,13.20
2022-09-01T18:31:26.467Z,12.82
2022-09-01T18:33:56.844Z,12.20
2022-09-01T18:36:35.467Z,10.13
2022-09-01T18:38:50.168Z,11.10
2022-09-01T18:41:13.626Z,7.80
2022-09-01T18:43:30.066Z,7.20
2022-09-01T18:45:41.023Z,8.73
2022-09-01T18:48:21.808Z,7.38
2022-09-01T18:50:32.138Z,11.10
2022-09-01T18:53:11.439Z,7.18
2022-09-01T18:55:28.926Z,9.18
2022-09-01T18:57:40.181Z,7.20
2022-09-01T19:00:00.120Z,7.50
2022-09-01T19:02:34.630Z,8.75
2022-09-01T19:04:41.217Z,8.75
2022-09-01T19:07:11.831Z,8.07
2022-09-01T19:09:25.762Z,10.10
2022-09-01T19:11:27.467Z,10.18
2022-09-01T19:14:14.917Z,6.43
2022-09-01T19:16:35.573Z,8.32
2022-09-01T19:18:42.606Z,9.15
2022-09-01T19:20:52.595Z,8.82
2022-09-01T19:23:12.700Z,11.85
2022-09-01T19:25:20.877Z,5.55
2022-09-01T19:27:28.253Z,6.85
2022-09-01T19:29:36.438Z,6.57
2022-09-01T19:31:44.940Z,7.10
2022-09-01T19:33:52.746Z,8.48
2022-09-01T19:36:00.771Z,11.38
2022-09-01T19:38:05.452Z,8.90
2022-09-01T19:40:09.272Z,7.35
2022-09-01T19:42:31.768Z,12.02
2022-09-01T19:44:48.234Z,10.57
2022-09-01T19:46:55.460Z,7.38
2022-09-01T19:49:14.470Z,9.52
2022-09-01T19:51:38.045Z,6.82
2022-09-01T19:53:43.376Z,10.33
2022-09-01T19:55:56.565Z,7.85
2022-09-01T19:58:05.308Z,6.20
2022-09-01T20:00:11.388Z,8.15
2022-09-01T20:02:22.343Z,8.07
2022-09-01T20:04:53.619Z,8.45
2022-09-01T20:07:01.107Z,7.43
2022-09-01T20:09:18.003Z,6.35
2022-09-01T20:11:45.578Z,8.45
2022-09-01T20:14:08.503Z,7.78
2022-09-01T20:16:34.933Z,6.35
2022-09-01T20:18:42.732Z,6.65
2022-09-01T20:20:47.587Z,7.72
2022-09-01T20:22:52.324Z,6.70
2022-09-01T20:24:58.291Z,9.43
2022-09-01T20:27:12.586Z,3.97
2022-09-01T20:29:28.546Z,8.10
2022-09-01T20:31:33.924Z,5.55
2022-09-01T20:33:38.786Z,4.10
2022-09-01T20:36:07.471Z,4.90
2022-09-01T20:38:09.260Z,6.22
2022-09-01T20:40:24.998Z,7.10
2022-09-01T20:42:46.228Z,5.97
2022-09-01T20:44:54.379Z,5.38
2022-09-01T20:46:56.200Z,9.27
2022-09-01T20:48:59.441Z,5.47
2022-09-01T20:51:16.334Z,7.32
2022-09-01T20:54:03.033Z,5.60
2022-09-01T20:56:21.934Z,4.50
2022-09-01T20:58:42.292Z,6.53
2022-09-01T21:00:54.008Z,4.05
2022-09-01T21:03:06.411Z,5.97
2022-09-01T21:05:28.813Z,4.70
2022-09-01T21:07:53.134Z,4.85
2022-09-01T21:10:00.495Z,6.18
2022-09-01T21:12:19.550Z,5.38
2022-09-01T21:14:52.005Z,4.93
2022-09-01T21:17:17.607Z,8.85
2022-09-01T21:19:48.772Z,3.63
2022-09-01T21:22:10.659Z,3.92
2022-09-01T21:24:12.467Z,3.75
2022-09-01T21:26:14.451Z,5.47
2022-09-01T21:28:19.440Z,9.75
2022-09-01T21:30:22.987Z,4.80
2022-09-01T21:32:25.629Z,5.00
2022-09-01T21:34:27.770Z,5.45
2022-09-01T21:36:29.596Z,5.05
2022-09-01T21:38:31.393Z,5.63
2022-09-01T21:40:33.996Z,6.90
2022-09-01T21:42:51.780Z,8.23
2022-09-01T21:44:55.891Z,6.82
2022-09-01T21:46:58.434Z,6.82
2022-09-01T21:49:00.245Z,16.33
2022-09-01T21:51:02.367Z,6.93
2022-09-01T21:53:04.198Z,4.60
2022-09-01T21:55:07.294Z,8.65
2022-09-01T21:57:09.139Z,7.32
2022-09-01T21:59:11.092Z,6.80
2022-09-01T22:01:14.296Z,5.22
2022-09-01T22:03:16.273Z,3.20
2022-09-01T22:05:18.426Z,7.18
2022-09-01T22:07:20.182Z,5.22
2022-09-01T22:09:22.158Z,5.45
2022-09-01T22:11:23.909Z,4.13
2022-09-01T22:13:25.684Z,2.90
2022-09-01T22:15:27.650Z,4.70
2022-09-01T22:17:29.654Z,4.35
2022-09-01T22:19:35.755Z,4.00
2022-09-01T22:21:38.229Z,6.13
2022-09-01T22:23:40.184Z,8.52
2022-09-01T22:25:45.592Z,7.97
2022-09-01T22:27:47.584Z,19.00
2022-09-01T22:29:49.517Z,13.13
2022-09-01T22:31:51.731Z,6.25
2022-09-01T22:33:53.614Z,5.03
2022-09-01T22:35:56.543Z,7.75
2022-09-01T22:37:58.352Z,7.72
2022-09-01T22:40:00.243Z,4.10
2022-09-01T22:42:02.133Z,3.75
2022-09-01T22:44:05.059Z,4.90
2022-09-01T22:46:06.889Z,5.72
2022-09-01T22:48:08.862Z,6.07
2022-09-01T22:50:11.310Z,4.15
2022-09-01T22:52:13.910Z,5.75
2022-09-01T22:54:16.502Z,7.38
2022-09-01T22:56:22.578Z,7.38
2022-09-01T22:58:24.453Z,6.85
2022-09-01T23:00:26.424Z,4.07
2022-09-01T23:02:28.554Z,7.28
2022-09-01T23:04:30.591Z,6.05
2022-09-01T23:06:34.690Z,8.40
2022-09-01T23:08:37.586Z,7.57
2022-09-01T23:10:39.536Z,6.93
2022-09-01T23:12:42.033Z,8.70
2022-09-01T23:14:43.875Z,6.82
2022-09-01T23:16:46.177Z,5.60
2022-09-01T23:18:49.878Z,4.40
2022-09-01T23:20:52.157Z,4.68
2022-09-01T23:22:54.030Z,4.40
2022-09-01T23:24:55.874Z,5.90
2022-09-01T23:26:57.926Z,6.00
2022-09-01T23:29:00.021Z,5.13
2022-09-01T23:31:02.531Z,5.82
2022-09-01T23:33:04.374Z,3.53
2022-09-01T23:35:07.059Z,7.05
2022-09-01T23:37:08.934Z,5.38
2022-09-01T23:39:10.776Z,4.80
2022-09-01T23:41:17.455Z,4.60
2022-09-01T23:43:21.500Z,5.45
2022-09-01T23:45:23.405Z,5.65
2022-09-01T23:47:25.355Z,3.70
2022-09-01T23:49:27.212Z,5.50
2022-09-01T23:51:29.051Z,5.05
2022-09-01T23:53:32.087Z,4.63
2022-09-01T23:55:34.323Z,4.57
2022-09-01T23:57:36.163Z,4.05
2022-09-01T23:59:37.934Z,4.80
